| time (UTC) | temp F | wind direction | speed MPH | gust MPH | rain 1hr in | rain 24hr in | rain mn in | humidity % | barometer mb |
| 20260510225122 | 81 | 270 | 0.0 | 1.0 | 0.00 | 0.00 | 0.00 | 54 | 987.8 |
| 20260510224123 | 82 | 248 | 0.0 | 0.0 | 0.00 | 0.00 | 0.00 | 55 | 987.8 |
| 20260510223122 | 82 | 69 | 0.0 | 2.0 | 0.00 | 0.00 | 0.00 | 49 | 987.8 |
| 20260510222122 | 83 | 359 | 0.0 | 2.0 | 0.00 | 0.00 | 0.00 | 49 | 987.8 |
| 20260510221122 | 83 | 337 | 0.0 | 2.0 | 0.00 | 0.00 | 0.00 | 46 | 987.7 |
| 20260510220122 | 84 | 270 | 0.0 | 2.0 | 0.00 | 0.00 | 0.00 | 47 | 987.7 |
| 20260510215123 | 84 | 125 | 0.0 | 2.0 | 0.00 | 0.00 | 0.00 | 45 | 987.7 |
| 20260510214122 | 85 | 45 | 0.0 | 0.0 | 0.00 | 0.00 | 0.00 | 45 | 987.7 |
| 20260510213122 | 85 | 252 | 0.0 | 2.0 | 0.00 | 0.00 | 0.00 | 45 | 987.9 |
| 20260510212123 | 87 | 126 | 1.0 | 3.0 | 0.00 | 0.00 | 0.00 | 42 | 987.9 |
| 20260510211122 | 88 | 180 | 0.0 | 0.0 | 0.00 | 0.00 | 0.00 | 43 | 988.0 |
| 20260510210124 | 89 | 68 | 0.0 | 1.0 | 0.00 | 0.00 | 0.00 | 43 | 988.0 |
| 20260510205122 | 91 | 50 | 1.0 | 5.0 | 0.00 | 0.00 | 0.00 | 39 | 988.1 |
| 20260510204123 | 91 | 113 | 0.0 | 3.0 | 0.00 | 0.00 | 0.00 | 40 | 988.2 |
| 20260510203122 | 92 | 113 | 0.0 | 2.0 | 0.00 | 0.00 | 0.00 | 40 | 988.2 |
| 20260510202143 | 95 | 103 | 0.0 | 4.0 | 0.00 | 0.00 | 0.00 | 39 | 988.2 |
| 20260510201123 | 92 | 94 | 0.0 | 3.0 | 0.00 | 0.00 | 0.00 | 42 | 988.2 |
| 20260510200122 | 94 | 108 | 0.0 | 4.0 | 0.00 | 0.00 | 0.00 | 40 | 988.2 |
| 20260510195122 | 93 | 240 | 0.0 | 1.0 | 0.00 | 0.00 | 0.00 | 41 | 988.2 |
| 20260510194122 | 94 | 90 | 0.0 | 2.0 | 0.00 | 0.00 | 0.00 | 41 | 988.4 |
| 20260510193125 | 92 | 270 | 0.0 | 4.0 | 0.00 | 0.00 | 0.00 | 40 | 988.4 |
| 20260510192124 | 94 | 236 | 0.0 | 2.0 | 0.00 | 0.00 | 0.00 | 39 | 988.4 |
| 20260510191143 | 95 | 45 | 0.0 | 1.0 | 0.00 | 0.00 | 0.00 | 38 | 988.4 |
| 20260510190122 | 95 | 129 | 0.0 | 2.0 | 0.00 | 0.00 | 0.00 | 39 | 988.4 |
| 20260510185123 | 94 | 70 | 1.0 | 4.0 | 0.00 | 0.00 | 0.00 | 38 | 988.5 |
| 20260510184143 | 93 | 220 | 0.0 | 2.0 | 0.00 | 0.00 | 0.00 | 39 | 988.5 |
| 20260510183122 | 94 | 223 | 0.0 | 3.0 | 0.00 | 0.00 | 0.00 | 37 | 988.6 |
| 20260510182122 | 93 | 172 | 1.0 | 3.0 | 0.00 | 0.00 | 0.00 | 37 | 988.7 |
| 20260510181124 | 93 | 312 | 0.0 | 3.0 | 0.00 | 0.00 | 0.00 | 38 | 988.8 |
| 20260510180123 | 90 | 132 | 0.0 | 4.0 | 0.00 | 0.00 | 0.00 | 39 | 988.8 |
| 20260510175123 | 92 | 90 | 0.0 | 4.0 | 0.00 | 0.00 | 0.00 | 41 | 988.9 |
| 20260510174122 | 91 | 120 | 1.0 | 4.0 | 0.00 | 0.00 | 0.00 | 41 | 989.0 |
| 20260510173123 | 94 | 70 | 1.0 | 4.0 | 0.00 | 0.00 | 0.00 | 38 | 989.2 |
| 20260510172123 | 90 | 120 | 1.0 | 7.0 | 0.00 | 0.00 | 0.00 | 39 | 989.2 |
| 20260510171143 | 92 | 113 | 0.0 | 0.0 | 0.00 | 0.00 | 0.00 | 42 | 989.2 |
| 20260510170122 | 93 | 360 | 0.0 | 0.0 | 0.00 | 0.00 | 0.00 | 41 | 989.2 |
| 20260510165124 | 90 | 268 | 1.0 | 5.0 | 0.00 | 0.00 | 0.00 | 45 | 989.2 |
| 20260510164124 | 92 | 138 | 0.0 | 2.0 | 0.00 | 0.00 | 0.00 | 44 | 989.1 |
| 20260510163123 | 91 | 216 | 1.0 | 3.0 | 0.00 | 0.00 | 0.00 | 50 | 989.1 |
| 20260510162122 | 91 | 157 | 1.0 | 5.0 | 0.00 | 0.00 | 0.00 | 50 | 989.2 |
| 20260510161122 | 92 | 203 | 1.0 | 3.0 | 0.00 | 0.00 | 0.00 | 49 | 989.1 |
| 20260510160122 | 89 | 180 | 1.0 | 4.0 | 0.00 | 0.00 | 0.00 | 51 | 989.1 |
| 20260510155122 | 87 | 252 | 0.0 | 3.0 | 0.00 | 0.00 | 0.00 | 54 | 989.1 |
| 20260510154122 | 88 | 116 | 0.0 | 2.0 | 0.00 | 0.00 | 0.00 | 56 | 988.9 |
| 20260510153126 | 87 | 37 | 1.0 | 3.0 | 0.00 | 0.00 | 0.00 | 56 | 988.9 |
| 20260510152125 | 84 | 120 | 1.0 | 4.0 | 0.00 | 0.00 | 0.00 | 61 | 988.8 |
| 20260510151122 | 82 | 180 | 0.0 | 0.0 | 0.00 | 0.00 | 0.00 | 65 | 988.8 |
| 20260510150122 | 81 | 106 | 0.0 | 3.0 | 0.00 | 0.00 | 0.00 | 67 | 988.8 |
| 20260510145122 | 79 | 16 | 1.0 | 5.0 | 0.00 | 0.00 | 0.00 | 71 | 988.9 |
| 20260510144143 | 75 | 110 | 0.0 | 3.0 | 0.00 | 0.00 | 0.00 | 79 | 988.9 |
| 20260510143122 | 72 | 117 | 0.0 | 3.0 | 0.00 | 0.00 | 0.00 | 83 | 988.8 |
| 20260510142122 | 71 | 101 | 0.0 | 2.0 | 0.00 | 0.00 | 0.00 | 85 | 988.8 |
| 20260510141123 | 70 | 183 | 0.0 | 2.0 | 0.00 | 0.00 | 0.00 | 86 | 988.9 |
| 20260510140123 | 69 | 93 | 1.0 | 4.0 | 0.00 | 0.00 | 0.00 | 88 | 988.9 |
| 20260510135123 | 69 | 203 | 0.0 | 0.0 | 0.00 | 0.00 | 0.00 | 89 | 988.8 |
| 20260510134122 | 68 | 203 | 0.0 | 0.0 | 0.00 | 0.00 | 0.00 | 91 | 988.8 |
| 20260510133122 | 67 | 169 | 0.0 | 2.0 | 0.00 | 0.00 | 0.00 | 93 | 988.8 |
| 20260510132122 | 67 | 270 | 0.0 | 0.0 | 0.00 | 0.00 | 0.00 | 93 | 988.7 |
| 20260510131122 | 66 | 202 | 0.0 | 1.0 | 0.00 | 0.00 | 0.00 | 94 | 988.7 |
| 20260510130125 | 66 | 144 | 0.0 | 3.0 | 0.00 | 0.00 | 0.00 | 95 | 988.7 |
| 20260510125127 | 65 | 293 | 0.0 | 0.0 | 0.00 | 0.00 | 0.00 | 95 | 988.5 |
| 20260510125123 | 65 | 293 | 0.0 | 0.0 | 0.00 | 0.00 | 0.00 | 96 | 988.5 |
| 20260510124124 | 65 | 225 | 0.0 | 0.0 | 0.00 | 0.00 | 0.00 | 96 | 988.2 |
| 20260510123122 | 64 | 203 | 0.0 | 0.0 | 0.00 | 0.00 | 0.00 | 96 | 988.2 |
| 20260510122122 | 64 | 135 | 0.0 | 0.0 | 0.00 | 0.00 | 0.00 | 96 | 988.2 |
| 20260510121122 | 63 | 248 | 0.0 | 0.0 | 0.00 | 0.00 | 0.00 | 96 | 988.0 |
| 20260510120122 | 63 | 225 | 0.0 | 0.0 | 0.00 | 0.00 | 0.00 | 96 | 987.8 |
| 20260510115122 | 62 | 225 | 0.0 | 0.0 | 0.00 | 0.00 | 0.00 | 96 | 987.8 |
| 20260510114122 | 62 | 225 | 0.0 | 0.0 | 0.00 | 0.00 | 0.00 | 96 | 987.6 |
| 20260510113123 | 62 | 248 | 0.0 | 0.0 | 0.00 | 0.00 | 0.00 | 96 | 987.2 |
| 20260510112122 | 61 | 248 | 0.0 | 0.0 | 0.00 | 0.00 | 0.00 | 96 | 987.2 |
| 20260510111123 | 61 | 225 | 0.0 | 0.0 | 0.00 | 0.00 | 0.00 | 96 | 986.9 |
| 20260510110122 | 61 | 225 | 0.0 | 0.0 | 0.00 | 0.00 | 0.00 | 96 | 986.8 |
| 20260510105143 | 61 | 248 | 0.0 | 0.0 | 0.00 | 0.00 | 0.00 | 95 | 986.8 |
| 20260510104143 | 61 | 225 | 0.0 | 0.0 | 0.00 | 0.00 | 0.00 | 95 | 986.7 |
| 20260510103144 | 61 | 225 | 0.0 | 0.0 | 0.00 | 0.00 | 0.00 | 95 | 986.5 |
| 20260510102122 | 61 | 225 | 0.0 | 0.0 | 0.00 | 0.00 | 0.00 | 95 | 986.6 |
| 20260510101122 | 61 | 225 | 0.0 | 0.0 | 0.00 | 0.00 | 0.00 | 95 | 986.5 |
| 20260510100122 | 61 | 225 | 0.0 | 0.0 | 0.00 | 0.00 | 0.00 | 95 | 986.5 |
| 20260510095122 | 61 | 225 | 0.0 | 0.0 | 0.00 | 0.00 | 0.00 | 95 | 986.5 |
| 20260510094143 | 61 | 225 | 0.0 | 0.0 | 0.00 | 0.00 | 0.00 | 95 | 986.4 |
| 20260510093122 | 61 | 225 | 0.0 | 0.0 | 0.00 | 0.00 | 0.00 | 94 | 986.2 |
| 20260510092122 | 61 | 225 | 0.0 | 0.0 | 0.00 | 0.00 | 0.00 | 94 | 986.2 |
| 20260510091122 | 61 | 248 | 0.0 | 0.0 | 0.00 | 0.00 | 0.00 | 94 | 986.2 |
| 20260510090122 | 61 | 225 | 0.0 | 0.0 | 0.00 | 0.00 | 0.00 | 93 | 986.1 |
| 20260510085146 | 60 | 225 | 0.0 | 0.0 | 0.00 | 0.00 | 0.00 | 93 | 986.1 |
| 20260510084126 | 60 | 248 | 0.0 | 0.0 | 0.00 | 0.00 | 0.00 | 93 | 986.1 |
| 20260510083122 | 60 | 225 | 0.0 | 0.0 | 0.00 | 0.00 | 0.00 | 93 | 986.2 |
| 20260510082122 | 60 | 248 | 0.0 | 0.0 | 0.00 | 0.00 | 0.00 | 92 | 986.1 |
| 20260510081122 | 60 | 248 | 0.0 | 0.0 | 0.00 | 0.00 | 0.00 | 91 | 986.1 |
| 20260510080122 | 60 | 270 | 0.0 | 0.0 | 0.00 | 0.00 | 0.00 | 90 | 986.0 |
| 20260510075122 | 59 | 248 | 0.0 | 0.0 | 0.00 | 0.00 | 0.00 | 89 | 986.0 |
| 20260510074122 | 60 | 270 | 0.0 | 0.0 | 0.00 | 0.00 | 0.00 | 86 | 985.7 |
| 20260510073122 | 60 | 270 | 0.0 | 0.0 | 0.00 | 0.00 | 0.00 | 84 | 985.7 |
| 20260510072122 | 60 | 225 | 0.0 | 0.0 | 0.00 | 0.00 | 0.00 | 82 | 985.5 |
| 20260510071143 | 60 | 225 | 0.0 | 0.0 | 0.00 | 0.00 | 0.00 | 81 | 985.5 |
| 20260510070122 | 59 | 225 | 0.0 | 0.0 | 0.00 | 0.00 | 0.00 | 83 | 985.5 |
| 20260510065143 | 59 | 225 | 0.0 | 0.0 | 0.00 | 0.00 | 0.00 | 83 | 985.4 |
| 20260510064122 | 59 | 270 | 0.0 | 0.0 | 0.00 | 0.00 | 0.00 | 83 | 985.4 |
| 20260510063122 | 59 | 248 | 0.0 | 0.0 | 0.00 | 0.00 | 0.00 | 83 | 985.2 |
| 20260510062122 | 59 | 270 | 0.0 | 0.0 | 0.00 | 0.00 | 0.00 | 83 | 985.4 |
| 20260510061144 | 60 | 248 | 0.0 | 0.0 | 0.00 | 0.00 | 0.00 | 83 | 985.5 |
| 20260510060124 | 60 | 248 | 0.0 | 0.0 | 0.00 | 0.00 | 0.00 | 82 | 985.5 |
| 20260510055123 | 60 | 225 | 0.0 | 0.0 | 0.00 | 0.00 | 0.00 | 81 | 985.4 |
| 20260510054122 | 60 | 225 | 0.0 | 0.0 | 0.00 | 0.00 | 0.00 | 81 | 985.6 |
| 20260510053122 | 61 | 293 | 0.0 | 0.0 | 0.00 | 0.00 | 0.00 | 80 | 985.5 |
| 20260510052122 | 60 | 248 | 0.0 | 0.0 | 0.00 | 0.00 | 0.00 | 81 | 985.5 |
| 20260510051122 | 61 | 225 | 0.0 | 0.0 | 0.00 | 0.00 | 0.00 | 80 | 985.5 |
| 20260510050122 | 61 | 270 | 0.0 | 0.0 | 0.00 | 0.00 | 0.00 | 79 | 985.4 |
| 20260510045122 | 61 | 248 | 0.0 | 0.0 | 0.00 | 0.00 | 0.00 | 80 | 985.4 |
| 20260510044123 | 61 | 248 | 0.0 | 0.0 | 0.00 | 0.00 | 0.00 | 81 | 985.4 |
| 20260510043122 | 62 | 248 | 0.0 | 0.0 | 0.00 | 0.00 | 0.00 | 80 | 985.5 |
| 20260510042122 | 61 | 248 | 0.0 | 0.0 | 0.00 | 0.00 | 0.00 | 80 | 985.5 |
| 20260510041122 | 61 | 248 | 0.0 | 0.0 | 0.00 | 0.00 | 0.00 | 80 | 985.5 |
| 20260510040123 | 62 | 248 | 0.0 | 0.0 | 0.00 | 0.00 | 0.00 | 81 | 985.5 |
| 20260510035143 | 62 | 248 | 0.0 | 0.0 | 0.00 | 0.00 | 0.00 | 82 | 985.5 |
| 20260510034122 | 62 | 248 | 0.0 | 0.0 | 0.00 | 0.00 | 0.00 | 82 | 985.5 |
| 20260510033122 | 62 | 248 | 0.0 | 0.0 | 0.00 | 0.00 | 0.00 | 81 | 985.5 |
| 20260510032122 | 62 | 248 | 0.0 | 0.0 | 0.00 | 0.00 | 0.00 | 81 | 985.5 |
| 20260510031123 | 63 | 248 | 0.0 | 0.0 | 0.00 | 0.00 | 0.00 | 81 | 985.2 |
| 20260510030143 | 63 | 248 | 0.0 | 0.0 | 0.00 | 0.00 | 0.00 | 81 | 985.2 |
| 20260510025122 | 63 | 248 | 0.0 | 0.0 | 0.00 | 0.00 | 0.00 | 81 | 985.2 |
| 20260510024122 | 63 | 248 | 0.0 | 0.0 | 0.00 | 0.00 | 0.00 | 81 | 985.0 |
| 20260510023122 | 63 | 248 | 0.0 | 0.0 | 0.00 | 0.00 | 0.00 | 81 | 984.9 |
| 20260510022122 | 64 | 248 | 0.0 | 0.0 | 0.00 | 0.00 | 0.00 | 79 | 984.7 |
| 20260510021122 | 64 | 248 | 0.0 | 0.0 | 0.00 | 0.00 | 0.00 | 78 | 984.6 |
| 20260510020126 | 65 | 248 | 0.0 | 0.0 | 0.00 | 0.00 | 0.00 | 77 | 984.6 |
| 20260510015129 | 65 | 248 | 0.0 | 0.0 | 0.00 | 0.00 | 0.00 | 76 | 984.4 |
| 20260510014122 | 65 | 270 | 0.0 | 0.0 | 0.00 | 0.00 | 0.00 | 75 | 984.4 |
| 20260510013123 | 66 | 248 | 0.0 | 0.0 | 0.00 | 0.00 | 0.00 | 75 | 984.2 |
| 20260510012122 | 67 | 248 | 0.0 | 0.0 | 0.00 | 0.00 | 0.00 | 73 | 984.1 |
| 20260510011122 | 67 | 248 | 0.0 | 0.0 | 0.00 | 0.00 | 0.00 | 72 | 984.0 |
| 20260510010122 | 68 | 248 | 0.0 | 0.0 | 0.00 | 0.00 | 0.00 | 72 | 984.0 |
| 20260510005144 | 69 | 248 | 0.0 | 0.0 | 0.00 | 0.00 | 0.00 | 72 | 983.9 |
| 20260510004122 | 70 | 248 | 0.0 | 0.0 | 0.00 | 0.00 | 0.00 | 71 | 983.8 |
| 20260510003122 | 71 | 248 | 0.0 | 0.0 | 0.00 | 0.00 | 0.00 | 69 | 983.7 |
| 20260510002122 | 72 | 248 | 0.0 | 0.0 | 0.00 | 0.00 | 0.00 | 67 | 983.7 |
| 20260510001122 | 73 | 248 | 0.0 | 0.0 | 0.00 | 0.00 | 0.00 | 68 | 983.7 |
| 20260510000122 | 74 | 248 | 0.0 | 0.0 | 0.00 | 0.00 | 0.00 | 65 | 983.7 |
| 20260509235122 | 74 | 270 | 0.0 | 0.0 | 0.00 | 0.00 | 0.00 | 64 | 983.6 |
| 20260509234122 | 76 | 270 | 0.0 | 0.0 | 0.00 | 0.00 | 0.00 | 61 | 983.4 |
| 20260509233125 | 76 | 270 | 0.0 | 0.0 | 0.00 | 0.00 | 0.00 | 59 | 983.2 |
| 20260509232125 | 77 | 113 | 0.0 | 0.0 | 0.00 | 0.00 | 0.00 | 57 | 983.2 |
| 20260509231122 | 78 | 248 | 0.0 | 0.0 | 0.00 | 0.00 | 0.00 | 55 | 983.2 |
| 20260509230122 | 78 | 270 | 0.0 | 0.0 | 0.00 | 0.00 | 0.00 | 54 | 983.2 |